createdAt,value
2018-06-11T00:01:31.111Z,30.10
2018-06-11T00:03:59.422Z,31.33
2018-06-11T00:06:27.685Z,30.53
2018-06-11T00:08:56.007Z,31.60
2018-06-11T00:11:24.285Z,32.90
2018-06-11T00:13:52.565Z,29.20
2018-06-11T00:16:20.849Z,31.20
2018-06-11T00:18:48.889Z,31.60
2018-06-11T00:21:17.154Z,31.03
2018-06-11T00:23:45.406Z,33.60
2018-06-11T00:26:13.725Z,31.30
2018-06-11T00:28:42.003Z,33.40
2018-06-11T00:31:10.282Z,33.67
2018-06-11T00:33:38.554Z,35.27
2018-06-11T00:36:07.653Z,35.33
2018-06-11T00:38:35.906Z,37.20
2018-06-11T00:41:04.189Z,37.10
2018-06-11T00:43:32.458Z,39.10
2018-06-11T00:46:00.750Z,37.10
2018-06-11T00:48:29.017Z,38.23
2018-06-11T00:50:57.285Z,39.37
2018-06-11T00:53:25.561Z,37.60
2018-06-11T00:56:05.337Z,36.63
2018-06-11T00:58:33.638Z,34.60
2018-06-11T01:01:01.946Z,34.43
2018-06-11T01:03:30.417Z,35.93
2018-06-11T01:05:58.742Z,33.40
2018-06-11T01:08:27.027Z,33.30
2018-06-11T01:10:55.315Z,34.07
2018-06-11T01:13:23.615Z,33.60
2018-06-11T01:15:51.938Z,34.00
2018-06-11T01:18:20.214Z,32.53
2018-06-11T01:20:48.962Z,33.77
2018-06-11T01:23:17.256Z,30.00
2018-06-11T01:25:45.540Z,30.33
2018-06-11T01:28:13.818Z,32.97
2018-06-11T01:30:42.109Z,33.00
2018-06-11T01:33:10.394Z,32.03
2018-06-11T01:35:38.677Z,31.43
2018-06-11T01:38:07.009Z,33.37
2018-06-11T01:40:35.277Z,33.43
2018-06-11T01:43:03.693Z,33.40
2018-06-11T01:45:31.974Z,33.30
2018-06-11T01:48:00.266Z,34.40
2018-06-11T01:50:28.574Z,39.23
2018-06-11T01:52:56.878Z,40.10
2018-06-11T01:55:25.152Z,39.73
2018-06-11T01:57:53.458Z,38.70
2018-06-11T02:00:21.751Z,41.33
2018-06-11T02:02:50.310Z,39.67
2018-06-11T02:05:18.594Z,42.17
2018-06-11T02:07:46.902Z,41.87
2018-06-11T02:10:16.189Z,44.40
2018-06-11T02:12:44.498Z,44.83
2018-06-11T02:15:12.779Z,43.63
2018-06-11T02:17:41.099Z,45.17
2018-06-11T02:20:09.428Z,44.73
2018-06-11T02:22:37.780Z,47.17
2018-06-11T02:25:06.059Z,48.30
2018-06-11T02:27:34.364Z,48.93
2018-06-11T02:30:02.672Z,48.67
2018-06-11T02:32:31.003Z,47.87
2018-06-11T02:34:59.326Z,47.40
2018-06-11T02:37:27.647Z,48.23
2018-06-11T02:39:55.935Z,49.60
2018-06-11T02:42:24.241Z,48.87
2018-06-11T02:44:52.527Z,46.07
2018-06-11T02:47:20.830Z,46.57
2018-06-11T02:49:49.122Z,48.13
2018-06-11T02:52:17.422Z,46.40
2018-06-11T02:54:45.714Z,45.30
2018-06-11T02:57:14.005Z,46.70
2018-06-11T02:59:42.294Z,45.87
2018-06-11T03:02:10.623Z,43.67
2018-06-11T03:04:38.905Z,43.10
2018-06-11T03:07:07.224Z,43.73
2018-06-11T03:09:35.521Z,45.60
2018-06-11T03:12:03.830Z,44.07
2018-06-11T03:14:32.149Z,46.70
2018-06-11T03:17:00.436Z,43.07
2018-06-11T03:19:28.739Z,44.73
2018-06-11T03:21:57.022Z,42.57
2018-06-11T03:24:25.321Z,40.50
2018-06-11T03:26:53.631Z,39.27
2018-06-11T03:29:21.934Z,41.23
2018-06-11T03:31:50.236Z,38.73
2018-06-11T03:34:18.564Z,38.37
2018-06-11T03:36:46.868Z,39.13
2018-06-11T03:39:14.920Z,41.30
2018-06-11T03:41:43.470Z,41.37
2018-06-11T03:44:11.770Z,40.67
2018-06-11T03:46:40.077Z,36.67
2018-06-11T03:49:08.909Z,39.30
2018-06-11T03:51:37.193Z,40.57
2018-06-11T03:54:05.566Z,39.80
2018-06-11T03:56:34.154Z,38.20
2018-06-11T03:59:02.685Z,35.17
2018-06-11T04:01:30.990Z,37.60
2018-06-11T04:03:59.318Z,36.03
2018-06-11T04:06:27.619Z,36.80
2018-06-11T04:08:55.983Z,36.10
2018-06-11T04:11:24.270Z,34.40
2018-06-11T04:13:52.582Z,35.17
2018-06-11T04:16:21.218Z,34.80
2018-06-11T04:18:49.518Z,31.33
2018-06-11T04:21:18.144Z,35.17
2018-06-11T04:23:46.557Z,33.07
2018-06-11T04:26:14.873Z,34.37
2018-06-11T04:28:43.147Z,34.87
2018-06-11T04:31:11.442Z,33.47
2018-06-11T04:33:39.744Z,36.03
2018-06-11T04:36:07.876Z,35.07
2018-06-11T04:38:36.198Z,35.20
2018-06-11T04:41:04.507Z,35.50
2018-06-11T04:43:32.846Z,35.13
2018-06-11T04:46:01.123Z,35.07
2018-06-11T04:48:30.483Z,34.80
2018-06-11T04:50:58.776Z,34.00
2018-06-11T04:53:27.039Z,32.53
2018-06-11T04:55:55.361Z,34.00
2018-06-11T04:58:23.642Z,33.03
2018-06-11T05:00:52.127Z,35.40
2018-06-11T05:03:20.427Z,31.90
2018-06-11T05:05:48.738Z,31.30
2018-06-11T05:08:17.007Z,32.03
2018-06-11T05:10:45.641Z,31.30
2018-06-11T05:13:13.930Z,28.90
2018-06-11T05:15:42.309Z,27.17
2018-06-11T05:18:10.570Z,27.10
2018-06-11T05:20:38.925Z,25.60
2018-06-11T05:23:07.199Z,26.97
2018-06-11T05:25:35.494Z,27.07
2018-06-11T05:28:04.342Z,26.73
2018-06-11T05:30:32.648Z,26.43
2018-06-11T05:33:00.937Z,25.20
2018-06-11T05:35:28.997Z,24.07
2018-06-11T05:37:57.292Z,23.80
2018-06-11T05:40:25.594Z,23.47
2018-06-11T05:42:53.891Z,22.70
2018-06-11T05:45:21.924Z,23.70
2018-06-11T05:47:50.223Z,24.57
2018-06-11T05:50:18.270Z,24.17
2018-06-11T05:52:46.321Z,25.67
2018-06-11T05:55:14.587Z,27.40
2018-06-11T05:57:42.881Z,26.60
2018-06-11T06:00:10.911Z,25.60
2018-06-11T06:02:39.007Z,26.23
2018-06-11T06:05:07.290Z,25.83
2018-06-11T06:07:35.647Z,26.10
2018-06-11T06:10:03.947Z,25.03
2018-06-11T06:12:32.017Z,24.70
2018-06-11T06:15:00.315Z,22.53
2018-06-11T06:17:28.390Z,20.73
2018-06-11T06:19:57.077Z,20.53
2018-06-11T06:22:25.415Z,20.97
2018-06-11T06:24:53.738Z,20.13
2018-06-11T06:27:22.041Z,18.23
2018-06-11T06:29:50.329Z,19.57
2018-06-11T06:32:18.638Z,18.60
2018-06-11T06:34:46.975Z,18.90
2018-06-11T06:37:15.364Z,18.53
2018-06-11T06:39:43.680Z,17.67
2018-06-11T06:42:11.990Z,17.20
2018-06-11T06:44:40.306Z,17.93
2018-06-11T06:47:08.630Z,17.50
2018-06-11T06:49:36.922Z,18.43
2018-06-11T06:52:05.239Z,18.40
2018-06-11T06:54:33.529Z,18.33
2018-06-11T06:57:01.842Z,18.40
2018-06-11T06:59:30.150Z,17.00
2018-06-11T07:01:58.458Z,16.47
2018-06-11T07:04:26.794Z,15.40
2018-06-11T07:06:55.080Z,17.00
2018-06-11T07:09:23.378Z,15.27
2018-06-11T07:11:51.686Z,14.40
2018-06-11T07:14:20.090Z,13.23
2018-06-11T07:16:48.435Z,13.50
2018-06-11T07:19:16.742Z,13.47
2018-06-11T07:21:45.042Z,13.83
2018-06-11T07:24:13.386Z,12.23
2018-06-11T07:26:41.691Z,12.00
2018-06-11T07:29:09.997Z,12.30
2018-06-11T07:31:38.274Z,13.00
2018-06-11T07:34:06.622Z,10.30
2018-06-11T07:36:34.920Z,10.40
2018-06-11T07:39:03.266Z,10.50
2018-06-11T07:41:31.553Z,10.53
2018-06-11T07:43:59.858Z,9.60
2018-06-11T07:46:28.140Z,9.07
2018-06-11T07:48:56.434Z,10.07
2018-06-11T07:51:24.742Z,8.77
2018-06-11T07:53:53.021Z,8.57
2018-06-11T07:56:21.329Z,10.00
2018-06-11T07:58:49.653Z,8.50
2018-06-11T08:01:17.984Z,8.60
2018-06-11T08:03:46.270Z,8.53
2018-06-11T08:06:14.602Z,9.87
2018-06-11T08:08:42.854Z,9.80
2018-06-11T08:11:11.131Z,8.20
2018-06-11T08:13:39.402Z,8.10
2018-06-11T08:16:07.718Z,8.57
2018-06-11T08:18:36.026Z,8.73
2018-06-11T08:21:04.295Z,8.10
2018-06-11T08:23:32.550Z,8.30
2018-06-11T08:26:00.834Z,8.00
2018-06-11T08:28:29.122Z,9.57
2018-06-11T08:30:57.410Z,9.00
2018-06-11T08:33:25.694Z,8.43
2018-06-11T08:35:53.983Z,8.50
2018-06-11T08:38:22.241Z,7.93
2018-06-11T08:40:50.523Z,7.20
2018-06-11T08:43:18.860Z,7.40
2018-06-11T08:45:47.110Z,7.27
2018-06-11T08:48:15.377Z,6.87
2018-06-11T08:50:43.647Z,7.33
2018-06-11T08:53:11.947Z,6.03
2018-06-11T08:55:40.217Z,6.30
2018-06-11T08:58:08.507Z,5.37
2018-06-11T09:00:36.772Z,5.23
2018-06-11T09:03:04.846Z,5.63
2018-06-11T09:05:33.137Z,4.30
2018-06-11T09:08:01.434Z,4.20
2018-06-11T09:10:29.687Z,4.90
2018-06-11T09:12:57.986Z,4.80
2018-06-11T09:15:26.254Z,5.70
2018-06-11T09:17:54.605Z,5.03
2018-06-11T09:20:22.845Z,4.90
2018-06-11T09:22:51.131Z,4.90
2018-06-11T09:25:19.403Z,5.17
2018-06-11T09:27:47.682Z,5.90
2018-06-11T09:30:15.955Z,5.30
2018-06-11T09:32:44.253Z,5.20
2018-06-11T09:35:12.506Z,5.33
2018-06-11T09:37:40.798Z,5.50
2018-06-11T09:40:08.838Z,5.10
2018-06-11T09:42:37.094Z,5.30
2018-06-11T09:45:05.401Z,5.40
2018-06-11T09:47:33.704Z,5.40
2018-06-11T09:50:01.975Z,5.17
2018-06-11T09:52:30.274Z,4.80
2018-06-11T09:54:58.554Z,4.83
2018-06-11T09:57:26.843Z,4.80
2018-06-11T09:59:55.093Z,4.13
2018-06-11T10:02:23.394Z,4.13
2018-06-11T10:04:51.669Z,3.97
2018-06-11T10:07:20.002Z,4.60
2018-06-11T10:09:48.295Z,4.70
2018-06-11T10:12:16.669Z,3.97
2018-06-11T10:14:44.910Z,5.30
2018-06-11T10:17:13.205Z,4.77
2018-06-11T10:19:41.492Z,4.53
2018-06-11T10:22:09.557Z,4.30
2018-06-11T10:24:37.841Z,5.23
2018-06-11T10:27:06.142Z,5.27
2018-06-11T10:29:34.461Z,4.67
2018-06-11T10:32:03.047Z,4.77
2018-06-11T10:34:31.094Z,4.43
2018-06-11T10:36:59.404Z,4.73
2018-06-11T10:39:27.693Z,4.83
2018-06-11T10:41:56.013Z,4.63
2018-06-11T10:44:24.305Z,4.03
2018-06-11T10:46:52.586Z,4.90
2018-06-11T10:49:20.923Z,5.30
2018-06-11T10:51:49.211Z,5.87
2018-06-11T10:54:17.517Z,4.90
2018-06-11T10:56:45.789Z,5.00
2018-06-11T10:59:14.111Z,4.60
2018-06-11T11:01:42.385Z,5.57
2018-06-11T11:04:10.689Z,5.17
2018-06-11T11:06:38.994Z,4.43
2018-06-11T11:09:07.307Z,4.37
2018-06-11T11:11:35.579Z,4.67
2018-06-11T11:14:03.865Z,4.57
2018-06-11T11:16:31.894Z,4.33
2018-06-11T11:19:00.165Z,4.37
2018-06-11T11:21:28.430Z,4.00
2018-06-11T11:23:56.766Z,4.40
2018-06-11T11:26:25.047Z,4.20
2018-06-11T11:28:53.334Z,4.17
2018-06-11T11:31:21.594Z,3.50
2018-06-11T11:33:49.931Z,3.90
2018-06-11T11:36:18.231Z,4.03
2018-06-11T11:38:46.519Z,3.93
2018-06-11T11:41:14.781Z,3.70
2018-06-11T11:43:43.101Z,3.60
2018-06-11T11:46:11.402Z,4.30
2018-06-11T11:48:39.441Z,3.00
2018-06-11T11:51:07.841Z,3.40
2018-06-11T11:53:36.089Z,3.67
2018-06-11T11:56:04.338Z,3.70
2018-06-11T11:58:32.625Z,3.50
2018-06-11T12:01:00.890Z,3.57
2018-06-11T12:03:29.152Z,3.90
2018-06-11T12:05:57.434Z,3.60
2018-06-11T12:08:25.697Z,3.77
2018-06-11T12:10:53.998Z,3.00
2018-06-11T12:13:22.265Z,3.63
2018-06-11T12:15:50.326Z,2.90
2018-06-11T12:18:18.603Z,3.33
2018-06-11T12:20:46.882Z,3.03
2018-06-11T12:23:15.145Z,3.07
2018-06-11T12:25:43.466Z,3.27
2018-06-11T12:28:11.782Z,2.80
2018-06-11T12:30:40.081Z,2.87
2018-06-11T12:33:08.378Z,2.83
2018-06-11T12:35:36.422Z,3.40
2018-06-11T12:38:04.697Z,2.30
2018-06-11T12:40:33.019Z,3.07
2018-06-11T12:43:01.329Z,2.27
2018-06-11T12:45:29.626Z,2.70
2018-06-11T12:47:57.902Z,3.10
2018-06-11T12:50:26.195Z,3.10
2018-06-11T12:52:54.523Z,3.50
2018-06-11T12:55:22.878Z,2.93
2018-06-11T12:57:50.905Z,3.43
2018-06-11T13:00:19.193Z,3.77
2018-06-11T13:02:47.490Z,2.80
2018-06-11T13:05:15.797Z,3.73
2018-06-11T13:07:44.309Z,3.30
2018-06-11T13:10:12.661Z,2.90
2018-06-11T13:12:40.942Z,3.37
2018-06-11T13:15:09.245Z,2.93
2018-06-11T13:17:37.534Z,3.50
2018-06-11T13:20:05.957Z,2.80
2018-06-11T13:22:34.244Z,2.87
2018-06-11T13:25:02.518Z,3.03
2018-06-11T13:27:30.848Z,2.90
2018-06-11T13:29:59.126Z,2.73
2018-06-11T13:32:27.438Z,2.73
2018-06-11T13:34:55.726Z,2.77
2018-06-11T13:37:24.031Z,3.27
2018-06-11T13:39:52.320Z,2.83
2018-06-11T13:42:20.627Z,3.00
2018-06-11T13:44:48.902Z,3.60
2018-06-11T13:47:17.279Z,3.33
2018-06-11T13:49:45.553Z,3.07
2018-06-11T13:52:13.872Z,3.17
2018-06-11T13:54:42.133Z,2.60
2018-06-11T13:57:10.462Z,2.83
2018-06-11T13:59:38.745Z,2.97
2018-06-11T14:02:07.058Z,2.97
2018-06-11T14:04:35.334Z,3.20
2018-06-11T14:07:03.655Z,3.20
2018-06-11T14:09:31.982Z,3.60
2018-06-11T14:12:00.300Z,3.27
2018-06-11T14:14:28.614Z,2.67
2018-06-11T14:16:56.918Z,3.77
2018-06-11T14:19:25.198Z,3.20
2018-06-11T14:21:53.541Z,2.93
2018-06-11T14:24:21.798Z,3.07
2018-06-11T14:26:50.104Z,3.67
2018-06-11T14:29:18.378Z,3.57
2018-06-11T14:31:46.687Z,3.20
2018-06-11T14:34:15.126Z,3.10
2018-06-11T14:36:43.447Z,2.97
2018-06-11T14:39:11.731Z,2.97
2018-06-11T14:41:40.092Z,3.20
2018-06-11T14:44:08.384Z,3.40
2018-06-11T14:46:36.697Z,3.60
2018-06-11T14:49:05.033Z,3.40
2018-06-11T14:51:33.313Z,3.60
2018-06-11T14:54:01.614Z,3.53
2018-06-11T14:56:29.661Z,3.37
2018-06-11T14:58:57.730Z,3.50
2018-06-11T15:01:26.166Z,3.17
2018-06-11T15:03:54.422Z,2.83
2018-06-11T15:06:22.694Z,2.80
2018-06-11T15:08:51.053Z,3.27
2018-06-11T15:11:19.102Z,3.60
2018-06-11T15:13:47.522Z,3.20
2018-06-11T15:16:15.565Z,2.90
2018-06-11T15:18:43.643Z,3.87
2018-06-11T15:21:11.685Z,3.50
2018-06-11T15:23:40.201Z,2.80
2018-06-11T15:26:08.345Z,3.57
2018-06-11T15:28:37.459Z,3.00
2018-06-11T15:31:05.885Z,3.30
2018-06-11T15:33:34.187Z,2.70
2018-06-11T15:36:02.527Z,3.40
2018-06-11T15:38:33.133Z,3.90
2018-06-11T15:41:01.554Z,3.10
2018-06-11T15:43:29.901Z,2.77
2018-06-11T15:45:58.452Z,3.13
2018-06-11T15:48:26.896Z,3.60
2018-06-11T15:50:55.294Z,3.40
2018-06-11T15:53:23.345Z,2.80
2018-06-11T15:55:51.445Z,3.47
2018-06-11T15:58:19.605Z,2.73
2018-06-11T16:00:47.866Z,2.90
2018-06-11T16:03:15.994Z,2.83
2018-06-11T16:05:44.836Z,3.20
2018-06-11T16:08:13.172Z,3.13
2018-06-11T16:10:41.480Z,2.53
2018-06-11T16:13:14.541Z,2.80
2018-06-11T16:15:42.980Z,3.53
2018-06-11T16:18:11.033Z,3.60
2018-06-11T16:20:39.060Z,3.03
2018-06-11T16:23:07.101Z,2.40
2018-06-11T16:25:35.502Z,3.20
2018-06-11T16:28:03.587Z,3.23
2018-06-11T16:30:31.851Z,2.77
2018-06-11T16:33:00.146Z,2.70
2018-06-11T16:35:28.174Z,2.60
2018-06-11T16:37:56.480Z,2.70
2018-06-11T16:40:24.762Z,2.53
2018-06-11T16:42:52.823Z,3.07
2018-06-11T16:45:21.137Z,3.00
2018-06-11T16:47:49.443Z,2.80
2018-06-11T16:50:17.476Z,3.07
2018-06-11T16:52:45.775Z,2.67
2018-06-11T16:55:14.089Z,2.33
2018-06-11T16:57:42.429Z,3.63
2018-06-11T17:00:10.457Z,3.50
2018-06-11T17:02:38.523Z,3.20
2018-06-11T17:05:06.803Z,2.93
2018-06-11T17:07:35.114Z,2.37
2018-06-11T17:10:03.381Z,2.97
2018-06-11T17:12:31.686Z,2.90
2018-06-11T17:14:59.770Z,2.40
2018-06-11T17:17:27.803Z,2.33
2018-06-11T17:19:56.105Z,2.30
2018-06-11T17:22:24.146Z,2.60
2018-06-11T17:24:52.464Z,2.20
2018-06-11T17:27:20.490Z,2.70
2018-06-11T17:29:48.782Z,2.27
2018-06-11T17:32:16.899Z,2.53
2018-06-11T17:34:45.193Z,2.30
2018-06-11T17:37:13.236Z,2.30
2018-06-11T17:39:41.526Z,2.30
2018-06-11T17:42:09.556Z,2.90
2018-06-11T17:44:37.872Z,2.10
2018-06-11T17:47:06.146Z,2.97
2018-06-11T17:49:34.445Z,2.50
2018-06-11T17:52:02.774Z,2.60
2018-06-11T17:54:30.833Z,2.20
2018-06-11T17:56:59.123Z,2.70
2018-06-11T17:59:27.444Z,2.33
2018-06-11T18:01:55.710Z,2.47
2018-06-11T18:04:24.013Z,2.90
2018-06-11T18:06:52.269Z,2.50
2018-06-11T18:09:20.558Z,2.83
2018-06-11T18:11:48.807Z,2.93
2018-06-11T18:14:16.878Z,2.57
2018-06-11T18:16:44.897Z,2.87
2018-06-11T18:19:13.175Z,2.30
2018-06-11T18:21:41.434Z,2.50
2018-06-11T18:24:09.710Z,2.70
2018-06-11T18:26:38.006Z,2.23
2018-06-11T18:29:06.321Z,2.07
2018-06-11T18:31:34.597Z,2.57
2018-06-11T18:34:02.862Z,2.20
2018-06-11T18:36:31.135Z,2.37
2018-06-11T18:38:59.149Z,2.30
2018-06-11T18:41:27.438Z,2.53
2018-06-11T18:43:55.709Z,2.20
2018-06-11T18:46:23.994Z,2.23
2018-06-11T18:48:52.258Z,2.50
2018-06-11T18:51:20.541Z,2.50
2018-06-11T18:53:48.857Z,2.80
2018-06-11T18:56:17.796Z,2.67
2018-06-11T18:58:46.082Z,2.97
2018-06-11T19:01:14.508Z,2.60
2018-06-11T19:03:43.106Z,3.33
2018-06-11T19:06:11.602Z,3.00
2018-06-11T19:08:39.869Z,3.00
2018-06-11T19:11:08.222Z,3.70
2018-06-11T19:13:36.497Z,3.60
2018-06-11T19:16:04.870Z,3.37
2018-06-11T19:18:33.162Z,3.63
2018-06-11T19:21:01.570Z,3.27
2018-06-11T19:23:29.832Z,3.13
2018-06-11T19:25:58.159Z,3.30
2018-06-11T19:28:26.691Z,3.63
2018-06-11T19:30:55.056Z,3.70
2018-06-11T19:33:23.339Z,3.50
2018-06-11T19:35:51.687Z,4.13
2018-06-11T19:38:20.068Z,3.70
2018-06-11T19:40:48.628Z,3.33
2018-06-11T19:43:18.117Z,3.50
2018-06-11T19:45:47.572Z,3.67
2018-06-11T19:48:16.832Z,4.07
2018-06-11T19:50:46.131Z,3.67
2018-06-11T19:53:15.432Z,3.63
2018-06-11T19:55:44.192Z,4.10
2018-06-11T19:58:13.299Z,4.23
2018-06-11T20:00:42.769Z,3.50
2018-06-11T20:03:11.228Z,4.20
2018-06-11T20:05:39.675Z,4.20
2018-06-11T20:08:08.115Z,3.50
2018-06-11T20:10:36.437Z,3.53
2018-06-11T20:13:04.789Z,3.93
2018-06-11T20:15:33.110Z,3.40
2018-06-11T20:18:01.435Z,4.10
2018-06-11T20:20:29.764Z,4.43
2018-06-11T20:22:58.095Z,4.10
2018-06-11T20:25:26.488Z,4.60
2018-06-11T20:27:54.804Z,4.17
2018-06-11T20:30:23.486Z,4.10
2018-06-11T20:32:51.810Z,4.50
2018-06-11T20:35:19.877Z,4.30
2018-06-11T20:37:48.247Z,5.13
2018-06-11T20:40:16.554Z,4.50
2018-06-11T20:42:44.600Z,4.30
2018-06-11T20:45:12.872Z,4.43
2018-06-11T20:47:41.161Z,4.57
2018-06-11T20:50:09.418Z,4.23
2018-06-11T20:52:37.700Z,4.33
2018-06-11T20:55:06.038Z,5.10
2018-06-11T20:57:34.320Z,5.53
2018-06-11T21:00:02.607Z,5.40
2018-06-11T21:02:31.053Z,5.47
2018-06-11T21:04:59.406Z,4.73
2018-06-11T21:07:27.699Z,5.50
2018-06-11T21:09:55.977Z,5.30
2018-06-11T21:12:24.285Z,4.60
2018-06-11T21:14:52.677Z,5.70
2018-06-11T21:17:21.125Z,5.20
2018-06-11T21:19:49.455Z,4.60
2018-06-11T21:22:17.828Z,4.87
2018-06-11T21:24:46.184Z,5.07
2018-06-11T21:27:14.511Z,5.30
2018-06-11T21:29:42.953Z,5.80
2018-06-11T21:32:11.222Z,5.30
2018-06-11T21:34:39.526Z,5.67
2018-06-11T21:37:07.836Z,5.63
2018-06-11T21:39:36.122Z,6.47
2018-06-11T21:42:04.398Z,6.47
2018-06-11T21:44:32.743Z,5.90
2018-06-11T21:47:01.131Z,5.87
2018-06-11T21:49:29.593Z,6.50
2018-06-11T21:51:57.964Z,5.07
2018-06-11T21:54:26.315Z,5.17
2018-06-11T21:56:55.790Z,5.57
2018-06-11T21:59:24.177Z,6.10
2018-06-11T22:01:52.465Z,5.10
2018-06-11T22:04:20.767Z,5.90
2018-06-11T22:06:49.030Z,6.60
2018-06-11T22:09:17.306Z,6.67
2018-06-11T22:11:45.570Z,6.07
2018-06-11T22:14:13.842Z,6.33
2018-06-11T22:16:42.100Z,6.30
2018-06-11T22:19:10.366Z,6.60
2018-06-11T22:21:38.621Z,6.93
2018-06-11T22:24:07.022Z,6.13
2018-06-11T22:26:35.276Z,7.03
2018-06-11T22:29:03.550Z,6.80
2018-06-11T22:31:31.815Z,6.03
2018-06-11T22:34:00.249Z,7.03
2018-06-11T22:36:28.506Z,6.50
2018-06-11T22:38:56.863Z,6.97
2018-06-11T22:41:25.086Z,7.30
2018-06-11T22:43:53.339Z,7.40
2018-06-11T22:46:21.614Z,7.27
2018-06-11T22:48:49.865Z,7.73
2018-06-11T22:51:18.161Z,7.97
2018-06-11T22:53:46.414Z,7.97
2018-06-11T22:56:14.699Z,8.23
2018-06-11T22:58:42.966Z,7.00
2018-06-11T23:01:11.246Z,7.50
2018-06-11T23:03:39.551Z,6.80
2018-06-11T23:06:07.855Z,7.77
2018-06-11T23:08:36.128Z,7.77
2018-06-11T23:11:04.191Z,7.50
2018-06-11T23:13:32.478Z,7.67
2018-06-11T23:16:00.785Z,7.53
2018-06-11T23:18:29.099Z,7.33
2018-06-11T23:20:57.385Z,8.37
2018-06-11T23:23:25.653Z,8.90
2018-06-11T23:25:53.954Z,8.10
2018-06-11T23:28:22.002Z,7.93
2018-06-11T23:30:50.289Z,8.30
2018-06-11T23:33:18.589Z,7.37
2018-06-11T23:35:46.883Z,7.80
2018-06-11T23:38:15.158Z,7.53
2018-06-11T23:40:43.451Z,6.60
2018-06-11T23:43:11.722Z,7.50
2018-06-11T23:45:40.058Z,6.57
2018-06-11T23:48:08.077Z,6.57
2018-06-11T23:50:36.348Z,6.97
2018-06-11T23:53:04.597Z,7.07
2018-06-11T23:55:32.863Z,7.93
2018-06-11T23:58:01.201Z,8.70
